MST,Max TemperatureF,Mean TemperatureF,Min TemperatureF,Max Dew PointF,MeanDew PointF,Min DewpointF,Max Humidity, Mean Humidity, Min Humidity, Max Sea Level PressureIn, Mean Sea Level PressureIn, Min Sea Level PressureIn, Max VisibilityMiles, Mean VisibilityMiles, Min VisibilityMiles, Max Wind SpeedMPH, Mean Wind SpeedMPH, Max Gust SpeedMPH,PrecipitationIn, CloudCover, Events, WindDirDegrees
2012-12-1,72,59,46,34,27,19,54,35,17,30.13,30.07,30.01,10,10,10,8,4,,0.00,0,,183
2012-12-2,73,59,45,23,20,16,39,24,12,30.10,30.06,29.99,10,10,10,16,6,20,0.00,0,,253
2012-12-3,69,56,44,34,25,18,50,31,17,30.14,30.09,30.02,10,10,10,12,5,18,0.00,3,,234
2012-12-4,69,56,44,36,33,30,62,43,25,30.30,30.19,30.14,10,10,10,10,6,,0.00,5,,148
2012-12-5,73,58,44,30,26,14,53,30,15,30.19,30.07,29.98,10,10,10,12,4,,0.00,5,,162
2012-12-6,75,60,46,25,21,10,37,25,8,29.96,29.90,29.82,10,10,10,20,6,24,0.00,3,,217
2012-12-7,68,57,46,32,29,25,50,37,24,29.94,29.89,29.83,10,10,10,17,4,21,0.00,1,,259
2012-12-8,66,54,43,32,28,22,60,39,19,29.97,29.92,29.85,10,10,10,16,6,23,0.00,0,,250
2012-12-9,63,52,42,29,22,15,56,34,16,30.05,29.97,29.91,10,10,10,21,8,29,0.00,0,,255
2012-12-10,57,46,35,18,14,10,39,31,17,30.12,30.05,29.96,10,10,10,7,3,,0.00,0,,242
2012-12-11,57,46,35,12,9,7,38,23,13,30.09,30.03,29.97,10,10,10,8,4,,0.00,1,,178
2012-12-12,64,52,39,23,15,7,32,24,17,30.07,30.00,29.94,10,10,10,15,5,20,0.00,0,,214
2012-12-13,60,53,46,48,33,21,94,49,30,29.95,29.86,29.68,10,9,2,22,10,30,0.41,4,Rain,156
2012-12-14,51,43,35,46,32,14,93,70,33,30.05,29.89,29.65,10,9,3,36,20,51,0.37,6,Rain-Snow,223
2012-12-15,50,46,42,36,33,27,71,63,54,30.03,29.99,29.94,10,10,10,20,8,26,0.00,6,Rain,200
2012-12-16,50,42,35,40,34,30,93,71,48,30.17,30.07,29.98,10,10,3,20,11,26,0.03,4,Rain,263
2012-12-17,57,44,32,36,31,28,87,65,38,30.19,30.11,29.99,10,10,10,6,1,,0.00,0,,200
2012-12-18,64,50,35,34,30,27,81,49,26,29.97,29.86,29.73,10,10,10,25,7,31,0.00,4,,207
2012-12-19,51,42,33,39,26,16,93,61,34,30.30,30.00,29.70,10,8,2,28,19,40,0.07,4,Rain-Snow,276
2012-12-20,53,40,26,23,19,12,80,49,19,30.38,30.29,30.22,10,10,10,12,5,,0.00,4,,89
2012-12-21,57,44,30,21,14,10,48,32,17,30.24,30.17,30.09,10,10,10,10,4,,0.00,3,,100
2012-12-22,64,54,43,29,24,17,50,36,20,30.15,30.10,30.04,10,10,10,9,3,,0.00,1,,183
2012-12-23,63,52,41,33,29,22,67,47,26,30.13,30.07,30.01,10,10,10,21,5,,0.00,0,,239
2012-12-24,57,49,41,33,28,24,65,47,29,30.01,29.94,29.84,10,10,10,25,9,31,0.00,1,,255
2012-12-25,54,46,39,32,25,14,67,46,21,30.04,29.98,29.93,10,10,10,25,11,24,0.00,0,,306
2012-12-26,62,50,37,28,16,1,57,34,9,29.96,29.88,29.78,10,10,10,21,5,28,0.00,3,,248
2012-12-27,48,40,32,28,21,15,82,53,30,30.01,29.88,29.78,10,10,10,26,12,34,0.00,3,,260
2012-12-28,46,37,28,25,18,9,80,50,22,30.15,30.10,30.02,10,10,10,9,5,,0.00,0,,226
2012-12-29,55,42,28,20,17,15,58,38,23,30.15,30.05,29.95,10,10,10,14,6,18,0.00,0,,133
2012-12-30,54,44,35,32,23,13,89,50,21,29.93,29.86,29.75,10,9,2,24,8,32,0.05,4,Rain-Snow,238
2012-12-31,41,36,30,34,30,22,100,85,57,30.19,30.02,29.91,10,5,1,25,7,29,0.04,7,Snow,236